Time;durP1;ratioP1;P1;durP2;ratioP2;P2;SDS_P1;SDS_P2;PMS_P1;PMS_P2;Temp;Humidity;BMP_temperature;BMP_pressure;BME280_temperature;BME280_humidity;BME280_pressure;Samples;Min_cycle;Max_cycle;Signal;HPM_P1;HPM_P2
2022/06/03 00:02:12;;;;;;;;;;;;;;;27.00;27.30;99501.53;4453219;32;33821;-82
2022/06/03 00:04:40;;;;;;;;;;;;;;;26.63;28.91;99489.16;4479070;32;34068;-82
2022/06/03 00:07:10;;;;;;;;;;;;;;;26.82;28.39;99475.81;4482302;32;34181;-83
2022/06/03 00:09:44;;;;;;;;;;;;;;;26.96;27.66;99491.13;4473560;32;35307;-83
2022/06/03 00:12:14;;;;;;;;;;;;;;;27.01;27.95;99487.31;4479480;31;34141;-86
2022/06/03 00:14:42;;;;;;;;;;;;;;;27.05;28.17;99491.53;4484615;31;35040;-82
2022/06/03 00:17:24;;;;;;;;;;;;;;;27.22;28.28;99492.53;4482791;32;34521;-82
2022/06/03 00:20:10;;;;;;;;;;;;;;;27.13;28.21;99500.03;4468624;32;34737;-81
2022/06/03 00:22:37;;;;;;;;;;;;;;;27.15;27.95;99515.91;4482795;32;33460;-82
2022/06/03 00:25:23;;;;;;;;;;;;;;;26.91;27.47;99520.63;4482395;32;33948;-82
2022/06/03 00:27:53;;;;;;;;;;;;;;;26.94;27.28;99525.78;4468694;32;35263;-83
2022/06/03 00:30:38;;;;;;;;;;;;;;;26.31;28.48;99525.22;4467034;32;34610;-82
2022/06/03 00:33:08;;;;;;;;;;;;;;;26.66;28.00;99527.09;4453005;32;33590;-82
2022/06/03 00:35:45;;;;;;;;;;;;;;;26.39;27.78;99533.69;4467120;32;34192;-82
2022/06/03 00:38:17;;;;;;;;;;;;;;;26.47;27.97;99531.56;4474468;32;32567;-81
2022/06/03 00:41:02;;;;;;;;;;;;;;;26.56;27.99;99536.47;4467161;31;33085;-85
2022/06/03 00:43:48;;;;;;;;;;;;;;;26.14;28.78;99529.50;4484051;31;33326;-82
2022/06/03 00:46:25;;;;;;;;;;;;;;;26.43;28.32;99535.28;4484207;31;34428;-82
2022/06/03 00:49:08;;;;;;;;;;;;;;;26.33;28.42;99533.97;4482332;32;33974;-82
2022/06/03 00:51:48;;;;;;;;;;;;;;;26.39;27.89;99529.22;4468401;32;34519;-84
2022/06/03 00:54:34;;;;;;;;;;;;;;;26.38;27.80;99538.16;4482229;32;34328;-84
2022/06/03 00:57:01;;;;;;;;;;;;;;;26.45;27.92;99538.72;4466395;32;35093;-81
2022/06/03 00:59:35;;;;;;;;;;;;;;;26.52;27.70;99536.66;4466450;32;34278;-83
2022/06/03 01:02:14;;;;;;;;;;;;;;;26.25;28.69;99534.31;4466445;32;34254;-82
2022/06/03 01:04:45;;;;;;;;;;;;;;;26.57;28.58;99548.81;4470705;32;34239;-82
2022/06/03 01:07:16;;;;;;;;;;;;;;;26.61;28.71;99550.41;4484378;32;35050;-80
2022/06/03 01:09:46;;;;;;;;;;;;;;;26.46;28.92;99548.47;4480421;32;35205;-83
2022/06/03 01:12:19;;;;;;;;;;;;;;;26.34;29.23;99547.19;4482151;32;34542;-82
2022/06/03 01:14:53;;;;;;;;;;;;;;;26.06;29.71;99547.56;4482072;32;34552;-84
2022/06/03 01:17:26;;;;;;;;;;;;;;;26.17;29.83;99547.09;4464240;32;34374;-82
2022/06/03 01:20:09;;;;;;;;;;;;;;;26.15;29.91;99541.84;4468571;32;34439;-81
2022/06/03 01:22:55;;;;;;;;;;;;;;;25.96;30.16;99546.28;4468392;32;35279;-79
2022/06/03 01:25:22;;;;;;;;;;;;;;;25.98;30.30;99555.03;4470578;32;34395;-79
2022/06/03 01:28:03;;;;;;;;;;;;;;;25.98;30.42;99549.72;4475559;32;35048;-78
2022/06/03 01:30:37;;;;;;;;;;;;;;;25.80;30.86;99555.81;4454294;32;35187;-81
2022/06/03 01:33:15;;;;;;;;;;;;;;;25.78;30.97;99558.56;4457379;32;34418;-78
2022/06/03 01:36:01;;;;;;;;;;;;;;;25.86;31.06;99559.09;4494335;31;33851;-79
2022/06/03 01:38:47;;;;;;;;;;;;;;;25.68;31.87;99571.34;4469092;32;33779;-80
2022/06/03 01:41:33;;;;;;;;;;;;;;;25.89;31.43;99571.38;4470376;32;35106;-79
2022/06/03 01:44:08;;;;;;;;;;;;;;;25.95;31.19;99571.97;4479858;31;34606;-80
2022/06/03 01:46:55;;;;;;;;;;;;;;;26.08;30.97;99566.13;4485609;31;34450;-78
2022/06/03 01:49:35;;;;;;;;;;;;;;;25.86;31.29;99575.03;4447036;32;34229;-79
2022/06/03 01:52:02;;;;;;;;;;;;;;;26.05;31.13;99583.03;4483295;32;34404;-80
2022/06/03 01:54:55;;;;;;;;;;;;;;;26.03;31.48;99584.94;4484063;32;35062;-80
2022/06/03 01:57:38;;;;;;;;;;;;;;;26.14;31.25;99582.66;4469974;32;34530;-78
2022/06/03 02:00:08;;;;;;;;;;;;;;;26.34;30.89;99578.25;4484008;32;34281;-82
2022/06/03 02:02:42;;;;;;;;;;;;;;;26.19;30.96;99582.44;4474034;32;34949;-81
2022/06/03 02:05:27;;;;;;;;;;;;;;;26.27;31.08;99576.78;4468403;32;34376;-81
2022/06/03 02:08:04;;;;;;;;;;;;;;;26.38;30.88;99579.81;4468430;32;34653;-82
2022/06/03 02:10:54;;;;;;;;;;;;;;;26.30;31.01;99581.97;4468323;32;33728;-81
2022/06/03 02:13:22;;;;;;;;;;;;;;;26.43;30.96;99577.81;4453113;32;35341;-83
2022/06/03 02:16:12;;;;;;;;;;;;;;;26.55;30.64;99571.94;4467994;32;34586;-79
2022/06/03 02:19:02;;;;;;;;;;;;;;;26.50;30.89;99570.44;4452867;32;33656;-80
2022/06/03 02:21:33;;;;;;;;;;;;;;;26.46;31.14;99567.06;4453665;32;34335;-82
2022/06/03 02:24:04;;;;;;;;;;;;;;;26.46;31.29;99567.06;4454248;32;33861;-83
2022/06/03 02:26:35;;;;;;;;;;;;;;;26.59;31.35;99565.56;4468112;32;34495;-80
2022/06/03 02:31:57;;;;;;;;;;;;;;;26.57;31.73;99577.22;4466905;32;35139;-79
2022/06/03 02:34:32;;;;;;;;;;;;;;;26.57;31.87;99572.75;4467830;32;34453;-81
2022/06/03 02:37:14;;;;;;;;;;;;;;;26.57;31.93;99571.91;4453647;32;35405;-80
2022/06/03 02:39:42;;;;;;;;;;;;;;;26.43;32.44;99569.84;4473328;32;35192;-82
2022/06/03 02:42:15;;;;;;;;;;;;;;;26.30;32.87;99574.00;4468292;32;33690;-82
2022/06/03 02:45:03;;;;;;;;;;;;;;;26.48;32.62;99566.97;4467783;32;35051;-81
2022/06/03 02:47:53;;;;;;;;;;;;;;;26.61;32.48;99576.13;4467979;32;34118;-82
2022/06/03 02:50:40;;;;;;;;;;;;;;;26.41;32.89;99563.75;4467764;32;34387;-82
2022/06/03 02:53:23;;;;;;;;;;;;;;;26.33;33.13;99564.09;4453746;32;34121;-82
2022/06/03 02:55:53;;;;;;;;;;;;;;;26.20;33.36;99569.06;4468008;32;34421;-83
2022/06/03 02:58:39;;;;;;;;;;;;;;;26.42;33.12;99570.78;4468050;32;34527;-82
2022/06/03 03:01:26;;;;;;;;;;;;;;;26.48;33.15;99564.31;4467065;32;34553;-81
2022/06/03 03:04:08;;;;;;;;;;;;;;;26.50;33.18;99560.69;4467630;32;33766;-81
2022/06/03 03:06:47;;;;;;;;;;;;;;;26.54;32.95;99564.91;4467679;32;34335;-81
2022/06/03 03:09:14;;;;;;;;;;;;;;;26.53;33.14;99563.19;4452416;32;34453;-81
2022/06/03 03:11:42;;;;;;;;;;;;;;;26.59;33.11;99572.66;4467103;32;34396;-84
2022/06/03 03:14:28;;;;;;;;;;;;;;;26.39;33.58;99584.19;4467599;32;34190;-81
2022/06/03 03:17:01;;;;;;;;;;;;;;;26.35;33.58;99579.97;4467111;32;34425;-84
2022/06/03 03:19:37;;;;;;;;;;;;;;;26.29;33.78;99580.22;4467211;32;35178;-86
2022/06/03 03:22:28;;;;;;;;;;;;;;;26.32;33.71;99585.41;4467621;32;33627;-81
2022/06/03 03:25:01;;;;;;;;;;;;;;;26.37;33.49;99583.41;4453080;32;35096;-83
2022/06/03 03:27:44;;;;;;;;;;;;;;;26.32;33.75;99594.25;4450465;32;34499;-82
2022/06/03 03:30:14;;;;;;;;;;;;;;;26.36;33.58;99590.50;4452369;32;34163;-82
2022/06/03 03:32:44;;;;;;;;;;;;;;;26.32;33.68;99593.38;4464381;32;33782;-81
2022/06/03 03:35:18;;;;;;;;;;;;;;;26.45;33.38;99599.88;4453142;32;35121;-83
2022/06/03 03:38:00;;;;;;;;;;;;;;;26.36;33.47;99602.94;4467443;32;34440;-81
2022/06/03 03:40:46;;;;;;;;;;;;;;;26.37;33.40;99602.03;4467392;32;35159;-81
2022/06/03 03:43:32;;;;;;;;;;;;;;;26.42;33.38;99600.88;4467744;32;33434;-81
2022/06/03 03:46:19;;;;;;;;;;;;;;;26.65;33.62;99599.84;4467552;32;34884;-81
2022/06/03 03:49:00;;;;;;;;;;;;;;;27.06;32.83;99598.84;4467024;32;34218;-82
2022/06/03 03:51:45;;;;;;;;;;;;;;;27.48;33.05;99601.22;4453319;32;34676;-83
2022/06/03 03:54:19;;;;;;;;;;;;;;;27.78;31.63;99601.53;4453333;32;34639;-83
2022/06/03 03:56:47;;;;;;;;;;;;;;;27.88;32.17;99604.56;4467037;32;33702;-83
2022/06/03 03:59:17;;;;;;;;;;;;;;;28.05;32.01;99596.56;4466987;32;35309;-81
2022/06/03 04:01:44;;;;;;;;;;;;;;;28.45;31.56;99599.81;4467198;32;35241;-81
2022/06/03 04:04:12;;;;;;;;;;;;;;;28.75;30.96;99596.41;4466831;32;33432;-81
2022/06/03 04:06:44;;;;;;;;;;;;;;;28.94;30.57;99605.09;4466169;32;33886;-82
2022/06/03 04:09:34;;;;;;;;;;;;;;;29.19;30.33;99609.97;4452438;32;34606;-82
2022/06/03 04:12:02;;;;;;;;;;;;;;;29.46;29.96;99615.53;4466106;32;35272;-83
2022/06/03 04:14:41;;;;;;;;;;;;;;;29.64;30.10;99610.13;4465583;32;34596;-81
2022/06/03 04:17:11;;;;;;;;;;;;;;;29.42;29.89;99611.31;4451542;32;34312;-82
2022/06/03 04:19:51;;;;;;;;;;;;;;;29.79;29.26;99607.38;4466281;32;34292;-82
2022/06/03 04:22:24;;;;;;;;;;;;;;;29.96;28.65;99616.19;4465301;32;34375;-79
2022/06/03 04:25:07;;;;;;;;;;;;;;;29.56;28.09;99614.06;4465638;32;33627;-82
2022/06/03 04:27:34;;;;;;;;;;;;;;;28.87;28.69;99617.09;4466114;32;35286;-85
2022/06/03 04:30:04;;;;;;;;;;;;;;;27.75;30.56;99615.00;4465481;32;34862;-81
2022/06/03 04:32:46;;;;;;;;;;;;;;;28.37;30.21;99626.00;4457968;32;34874;-82
2022/06/03 04:35:32;;;;;;;;;;;;;;;28.74;29.09;99621.38;4471110;32;33715;-81
2022/06/03 04:38:23;;;;;;;;;;;;;;;28.22;30.54;99630.31;4462602;32;33752;-85
2022/06/03 04:40:58;;;;;;;;;;;;;;;28.51;29.66;99631.47;4463956;32;33964;-81
2022/06/03 04:43:44;;;;;;;;;;;;;;;28.70;29.45;99631.34;4456315;32;35313;-83
2022/06/03 04:46:30;;;;;;;;;;;;;;;28.74;30.08;99626.72;4481579;32;33490;-82
2022/06/03 04:49:00;;;;;;;;;;;;;;;28.50;30.84;99627.09;4481607;32;34949;-82
2022/06/03 04:51:42;;;;;;;;;;;;;;;29.02;30.26;99628.75;4467494;32;34546;-84
2022/06/03 04:54:28;;;;;;;;;;;;;;;28.61;30.96;99632.72;4463075;32;35138;-82
2022/06/03 04:57:04;;;;;;;;;;;;;;;29.76;29.88;99633.44;4465413;32;33781;-87
2022/06/03 04:59:42;;;;;;;;;;;;;;;30.13;28.87;99625.91;4451041;32;35296;-83
2022/06/03 05:02:13;;;;;;;;;;;;;;;29.78;28.45;99628.88;4451692;32;35373;-82
2022/06/03 05:04:49;;;;;;;;;;;;;;;29.47;28.54;99622.63;4438131;32;806614;-81
2022/06/03 05:07:35;;;;;;;;;;;;;;;29.43;29.07;99630.88;4452289;32;34436;-81
2022/06/03 05:10:21;;;;;;;;;;;;;;;28.62;30.45;99634.44;4465268;32;33729;-81
2022/06/03 05:13:01;;;;;;;;;;;;;;;29.50;29.64;99632.25;4465167;32;34472;-81
2022/06/03 05:15:38;;;;;;;;;;;;;;;30.44;29.09;99631.09;4452154;32;34475;-86
2022/06/03 05:18:24;;;;;;;;;;;;;;;30.12;28.98;99645.53;4466401;32;33826;-81
2022/06/03 05:21:10;;;;;;;;;;;;;;;29.88;28.61;99648.72;4466688;32;34859;-81
2022/06/03 05:23:46;;;;;;;;;;;;;;;29.72;28.75;99655.94;4465894;32;35333;-82
2022/06/03 05:26:26;;;;;;;;;;;;;;;30.19;28.22;99652.28;4466035;32;35272;-81
2022/06/03 05:28:56;;;;;;;;;;;;;;;29.99;29.39;99654.31;4465614;32;33666;-82
2022/06/03 05:31:29;;;;;;;;;;;;;;;29.74;29.73;99656.72;4471311;32;34183;-82
2022/06/03 05:34:16;;;;;;;;;;;;;;;28.96;31.24;99653.09;4465236;32;34480;-82
2022/06/03 05:36:56;;;;;;;;;;;;;;;30.38;29.54;99650.19;4466122;32;34476;-86
2022/06/03 05:39:39;;;;;;;;;;;;;;;30.47;28.45;99651.47;4452052;32;33666;-82
2022/06/03 05:42:25;;;;;;;;;;;;;;;30.91;28.30;99661.22;4466021;32;35554;-82
2022/06/03 05:45:12;;;;;;;;;;;;;;;30.88;28.19;99664.13;4465842;32;34448;-83
2022/06/03 05:47:44;;;;;;;;;;;;;;;30.93;27.03;99665.53;4441563;32;33862;-86
2022/06/03 05:50:17;;;;;;;;;;;;;;;30.85;27.38;99670.53;4468472;32;33461;-82
2022/06/03 05:52:51;;;;;;;;;;;;;;;30.82;27.74;99665.34;4453963;32;34252;-87
2022/06/03 05:55:30;;;;;;;;;;;;;;;31.27;27.08;99664.22;4468482;32;34170;-84
2022/06/03 05:58:09;;;;;;;;;;;;;;;30.33;26.79;99672.84;4454357;32;34538;-82
2022/06/03 06:00:37;;;;;;;;;;;;;;;29.57;28.55;99671.91;4454242;32;33782;-86
2022/06/03 06:03:10;;;;;;;;;;;;;;;29.33;28.55;99673.28;4454372;32;34956;-86
2022/06/03 06:05:50;;;;;;;;;;;;;;;28.94;28.19;99665.63;4467805;32;34194;-82
2022/06/03 06:08:23;;;;;;;;;;;;;;;29.38;27.94;99665.87;4468296;32;34577;-83
2022/06/03 06:10:53;;;;;;;;;;;;;;;29.76;27.71;99654.81;4468487;32;34477;-82
2022/06/03 06:13:44;;;;;;;;;;;;;;;30.64;27.04;99659.28;4468340;32;34389;-86
2022/06/03 06:16:20;;;;;;;;;;;;;;;28.36;28.98;99661.59;4454013;32;34166;-81
2022/06/03 06:18:53;;;;;;;;;;;;;;;28.40;27.26;99654.34;4454156;32;34426;-82
2022/06/03 06:21:29;;;;;;;;;;;;;;;27.33;29.36;99660.56;4454216;32;33672;-81
2022/06/03 06:24:01;;;;;;;;;;;;;;;27.45;29.82;99665.28;4454143;32;34160;-82
2022/06/03 06:26:47;;;;;;;;;;;;;;;27.12;30.22;99658.00;4454086;32;34950;-83
2022/06/03 06:29:30;;;;;;;;;;;;;;;28.32;28.36;99654.72;4468137;32;35075;-84
2022/06/03 06:32:00;;;;;;;;;;;;;;;28.06;28.86;99656.06;4467867;32;33570;-83
2022/06/03 06:34:28;;;;;;;;;;;;;;;27.82;29.00;99666.19;4468077;32;33949;-82
2022/06/03 06:37:14;;;;;;;;;;;;;;;27.27;29.29;99655.53;4467865;32;35369;-82
2022/06/03 06:39:44;;;;;;;;;;;;;;;27.96;28.92;99658.34;4468213;32;34636;-82
2022/06/03 06:42:16;;;;;;;;;;;;;;;28.00;29.98;99662.59;4468284;32;33528;-82
2022/06/03 06:44:44;;;;;;;;;;;;;;;27.70;30.11;99664.97;4453779;32;33894;-81
2022/06/03 06:47:16;;;;;;;;;;;;;;;26.83;31.02;99667.31;4468280;32;34854;-81
2022/06/03 06:49:49;;;;;;;;;;;;;;;27.97;29.71;99669.88;4468102;32;35278;-85
2022/06/03 06:52:36;;;;;;;;;;;;;;;28.57;30.11;99660.50;4454140;32;33569;-83
2022/06/03 06:55:20;;;;;;;;;;;;;;;29.55;28.45;99668.44;4443508;32;33689;-82
2022/06/03 06:57:48;;;;;;;;;;;;;;;28.95;28.63;99651.37;4454080;32;34346;-82
2022/06/03 07:00:24;;;;;;;;;;;;;;;27.70;30.92;99661.44;4466905;32;35174;-82
2022/06/03 07:03:00;;;;;;;;;;;;;;;28.82;29.31;99654.69;4454117;32;33384;-82
2022/06/03 07:05:39;;;;;;;;;;;;;;;28.46;30.20;99660.22;4453287;32;35042;-82
2022/06/03 07:08:26;;;;;;;;;;;;;;;28.48;29.70;99663.66;4467966;32;35312;-84
2022/06/03 07:11:07;;;;;;;;;;;;;;;29.54;28.73;99655.16;4453596;32;35039;-82
2022/06/03 07:13:45;;;;;;;;;;;;;;;29.04;29.28;99646.41;4453791;32;34664;-82
2022/06/03 07:16:14;;;;;;;;;;;;;;;28.96;29.00;99647.75;4453581;32;33700;-83
2022/06/03 07:21:57;;;;;;;;;;;;;;;29.42;29.11;99661.22;4467672;32;34592;-82
2022/06/03 07:24:38;;;;;;;;;;;;;;;30.26;28.50;99640.25;4453628;32;34467;-81
2022/06/03 07:27:07;;;;;;;;;;;;;;;29.83;28.08;99648.16;4467754;32;33797;-82
2022/06/03 07:29:39;;;;;;;;;;;;;;;29.03;29.20;99634.00;4453940;32;34237;-83
2022/06/03 07:32:10;;;;;;;;;;;;;;;30.02;29.07;99635.41;4453585;32;34127;-83
2022/06/03 07:34:42;;;;;;;;;;;;;;;29.43;29.32;99636.22;4467517;32;33626;-82
2022/06/03 07:37:25;;;;;;;;;;;;;;;30.23;27.30;99637.75;4453508;32;33735;-82
2022/06/03 07:39:58;;;;;;;;;;;;;;;30.09;27.96;99637.72;4467835;32;35261;-82
2022/06/03 07:42:42;;;;;;;;;;;;;;;30.01;27.96;99633.69;4453676;32;35133;-88
2022/06/03 07:45:21;;;;;;;;;;;;;;;30.83;27.63;99632.25;4467604;32;34519;-84
2022/06/03 07:47:48;;;;;;;;;;;;;;;30.30;26.51;99639.97;4453312;32;34016;-82
2022/06/03 07:50:17;;;;;;;;;;;;;;;30.44;26.80;99636.47;4453671;32;33995;-82
2022/06/03 07:52:46;;;;;;;;;;;;;;;29.34;27.57;99657.16;4453488;32;34223;-81
2022/06/03 07:55:14;;;;;;;;;;;;;;;29.19;28.39;99638.47;4467507;32;33055;-87
2022/06/03 07:57:47;;;;;;;;;;;;;;;28.69;28.70;99640.31;4453445;32;33968;-82
2022/06/03 08:00:15;;;;;;;;;;;;;;;29.65;28.42;99642.06;4467404;32;35326;-82
2022/06/03 08:02:43;;;;;;;;;;;;;;;30.45;27.08;99642.66;4453383;32;34396;-81
2022/06/03 08:05:17;;;;;;;;;;;;;;;29.09;28.07;99632.78;4467653;32;33259;-82
2022/06/03 08:10:58;;;;;;;;;;;;;;;29.94;27.02;99629.66;4467599;32;34135;-83
2022/06/03 08:13:49;;;;;;;;;;;;;;;28.94;28.16;99622.94;4454741;32;34374;-82
2022/06/03 08:16:19;;;;;;;;;;;;;;;29.54;28.91;99629.28;4460885;32;34299;-81
2022/06/03 08:18:46;;;;;;;;;;;;;;;31.09;26.75;99621.72;4453504;32;35182;-82
2022/06/03 08:21:15;;;;;;;;;;;;;;;30.92;25.32;99621.00;4467275;32;34338;-81
2022/06/03 08:23:43;;;;;;;;;;;;;;;29.81;25.76;99626.00;4453254;32;34021;-88
2022/06/03 08:26:11;;;;;;;;;;;;;;;29.91;26.63;99632.53;4453203;32;33237;-82
2022/06/03 08:28:38;;;;;;;;;;;;;;;30.18;26.06;99623.81;4453055;32;34370;-82
2022/06/03 08:31:06;;;;;;;;;;;;;;;30.88;25.68;99624.81;4453014;32;35329;-86
2022/06/03 08:33:39;;;;;;;;;;;;;;;31.30;25.20;99614.09;4453022;32;34527;-82
2022/06/03 08:36:07;;;;;;;;;;;;;;;31.05;25.37;99617.50;4467226;32;33368;-83
2022/06/03 08:38:45;;;;;;;;;;;;;;;30.78;25.30;99613.81;4467084;32;35110;-82
2022/06/03 08:41:18;;;;;;;;;;;;;;;30.97;25.91;99609.97;4453253;32;35304;-83
2022/06/03 08:44:05;;;;;;;;;;;;;;;31.25;25.12;99617.06;4467163;32;34180;-85
2022/06/03 08:46:35;;;;;;;;;;;;;;;31.15;25.38;99616.81;4466723;32;33546;-84
2022/06/03 08:49:06;;;;;;;;;;;;;;;31.48;23.72;99604.84;4452742;32;34978;-83
2022/06/03 08:51:36;;;;;;;;;;;;;;;31.77;24.38;99613.63;4466834;32;34526;-85
2022/06/03 08:54:05;;;;;;;;;;;;;;;32.04;24.13;99615.41;4452652;32;33975;-80
2022/06/03 08:56:34;;;;;;;;;;;;;;;31.57;25.26;99617.66;4466838;32;33918;-86
2022/06/03 08:59:02;;;;;;;;;;;;;;;31.95;24.71;99616.91;4452754;32;33631;-85
2022/06/03 09:01:36;;;;;;;;;;;;;;;30.23;26.17;99625.28;4452554;32;34018;-85
2022/06/03 09:04:03;;;;;;;;;;;;;;;30.50;25.40;99629.88;4466761;32;33890;-80
2022/06/03 09:06:30;;;;;;;;;;;;;;;30.50;25.48;99629.88;4466773;32;33860;-83
2022/06/03 09:08:59;;;;;;;;;;;;;;;31.70;24.85;99618.53;4466851;32;33848;-81
2022/06/03 09:11:47;;;;;;;;;;;;;;;31.87;23.93;99619.28;4452792;32;34199;-83
2022/06/03 09:14:18;;;;;;;;;;;;;;;31.32;24.43;99614.88;4452764;32;34429;-79
2022/06/03 09:16:45;;;;;;;;;;;;;;;31.79;24.41;99611.72;4439743;32;34566;-83
2022/06/03 09:19:17;;;;;;;;;;;;;;;32.34;24.65;99607.91;4466502;32;35081;-82
2022/06/03 09:21:46;;;;;;;;;;;;;;;30.75;25.59;99615.84;4452867;32;34586;-82
2022/06/03 09:24:17;;;;;;;;;;;;;;;31.53;26.21;99602.75;4453713;32;35139;-79
2022/06/03 09:26:45;;;;;;;;;;;;;;;31.57;25.67;99617.66;4454485;32;33539;-79
2022/06/03 09:29:14;;;;;;;;;;;;;;;31.41;24.89;99612.47;4454494;32;34320;-80
2022/06/03 09:31:48;;;;;;;;;;;;;;;31.44;25.22;99616.75;4454614;32;34651;-80
2022/06/03 09:34:15;;;;;;;;;;;;;;;31.63;24.56;99617.25;4468467;32;35286;-79
2022/06/03 09:36:42;;;;;;;;;;;;;;;31.84;25.38;99620.28;4468496;32;34489;-82
2022/06/03 09:39:10;;;;;;;;;;;;;;;31.68;24.94;99617.81;4468643;32;34241;-80
2022/06/03 09:41:39;;;;;;;;;;;;;;;32.06;24.64;99629.59;4454333;32;35254;-80
2022/06/03 09:44:06;;;;;;;;;;;;;;;32.55;23.96;99620.84;4454136;32;35170;-80
2022/06/03 09:46:34;;;;;;;;;;;;;;;31.85;25.57;99632.75;4468313;32;33549;-79
2022/06/03 09:49:02;;;;;;;;;;;;;;;31.25;25.14;99638.50;4468359;32;34139;-79
2022/06/03 09:54:21;;;;;;;;;;;;;;;32.63;23.91;99623.81;4456341;32;34177;-80
2022/06/03 09:56:50;;;;;;;;;;;;;;;32.07;24.57;99636.66;4454353;32;34255;-82
2022/06/03 09:59:19;;;;;;;;;;;;;;;31.74;24.93;99640.63;4454231;32;35128;-83
2022/06/03 10:01:50;;;;;;;;;;;;;;;32.23;24.25;99640.00;4454301;32;34460;-83
2022/06/03 10:04:19;;;;;;;;;;;;;;;31.97;25.28;99634.63;4454410;32;34337;-79
2022/06/03 10:06:50;;;;;;;;;;;;;;;32.84;24.81;99621.41;4454344;32;33918;-86
2022/06/03 10:18:02;;;;;;;;;;;;;;;31.47;25.31;99635.31;4389129;32;34357;-79
2022/06/03 10:20:30;;;;;;;;;;;;;;;31.84;25.16;99636.38;4438495;32;34702;-82
2022/06/03 10:22:57;;;;;;;;;;;;;;;32.37;24.81;99629.16;4468121;32;35301;-80
2022/06/03 10:25:26;;;;;;;;;;;;;;;31.61;25.31;99629.88;4468150;32;34159;-79
2022/06/03 10:27:53;;;;;;;;;;;;;;;32.77;23.17;99622.81;4454079;32;33335;-84
2022/06/03 10:30:26;;;;;;;;;;;;;;;33.37;23.93;99630.09;4468203;32;34103;-83
2022/06/03 10:32:54;;;;;;;;;;;;;;;32.26;24.20;99628.22;4467858;32;35204;-82
2022/06/03 10:35:26;;;;;;;;;;;;;;;32.82;23.87;99613.47;4468012;32;34275;-83
2022/06/03 10:37:55;;;;;;;;;;;;;;;32.59;23.94;99617.81;4468089;32;33189;-83
2022/06/03 10:40:27;;;;;;;;;;;;;;;32.08;23.93;99619.59;4467922;32;34011;-82
2022/06/03 10:42:57;;;;;;;;;;;;;;;32.70;23.29;99611.69;4467816;32;34388;-82
2022/06/03 10:45:26;;;;;;;;;;;;;;;33.04;23.42;99603.91;4468045;32;34614;-82
2022/06/03 10:47:53;;;;;;;;;;;;;;;32.67;23.13;99603.84;4467899;32;34320;-82
2022/06/03 10:50:26;;;;;;;;;;;;;;;33.25;23.90;99601.44;4453964;32;33813;-84
2022/06/03 11:01:32;;;;;;;;;;;;;;;33.05;23.76;99586.81;4467671;32;34360;-83
2022/06/03 11:03:59;;;;;;;;;;;;;;;33.95;22.55;99590.75;4453818;32;34073;-81
2022/06/03 11:06:34;;;;;;;;;;;;;;;34.01;22.11;99581.37;4453639;32;35124;-89
2022/06/03 11:09:05;;;;;;;;;;;;;;;34.26;22.31;99575.78;4468073;32;34185;-83
2022/06/03 11:11:36;;;;;;;;;;;;;;;33.43;24.41;99587.47;4453878;32;33781;-83
2022/06/03 11:14:21;;;;;;;;;;;;;;;34.72;21.34;99577.50;4467567;32;34337;-88
2022/06/03 11:17:06;;;;;;;;;;;;;;;35.09;21.09;99579.94;4467803;32;34276;-87
2022/06/03 11:19:35;;;;;;;;;;;;;;;34.79;21.36;99573.34;4468172;32;33123;-83
2022/06/03 11:22:11;;;;;;;;;;;;;;;33.81;22.43;99575.66;4453962;32;34189;-83
2022/06/03 11:24:39;;;;;;;;;;;;;;;34.08;22.37;99571.84;4467457;32;35299;-83
2022/06/03 11:27:07;;;;;;;;;;;;;;;33.34;22.12;99564.00;4451902;32;34574;-87
2022/06/03 11:29:34;;;;;;;;;;;;;;;32.88;23.09;99563.81;4454086;32;33401;-84
2022/06/03 11:32:02;;;;;;;;;;;;;;;33.00;23.54;99549.53;4453162;32;33920;-83
2022/06/03 11:34:37;;;;;;;;;;;;;;;32.39;23.38;99560.16;4475875;32;35031;-86
2022/06/03 11:37:17;;;;;;;;;;;;;;;33.29;22.79;99565.31;4468238;32;35098;-83
2022/06/03 11:40:00;;;;;;;;;;;;;;;34.05;21.94;99545.19;4468377;32;34002;-82
2022/06/03 11:42:30;;;;;;;;;;;;;;;34.74;21.65;99543.25;4468309;32;34322;-82
2022/06/03 11:48:16;;;;;;;;;;;;;;;34.40;21.80;99531.62;4451534;32;33990;-82
2022/06/03 11:50:43;;;;;;;;;;;;;;;34.61;20.90;99523.66;4465891;32;33545;-86
2022/06/03 11:53:10;;;;;;;;;;;;;;;33.94;21.60;99527.16;4452907;32;35044;-88
2022/06/03 11:55:38;;;;;;;;;;;;;;;34.06;21.88;99530.78;4452473;32;34565;-84
2022/06/03 11:58:16;;;;;;;;;;;;;;;33.32;21.71;99536.37;4452412;32;35127;-86
2022/06/03 12:00:45;;;;;;;;;;;;;;;33.24;23.01;99529.88;4453040;32;33514;-83
2022/06/03 12:03:24;;;;;;;;;;;;;;;33.45;23.09;99524.69;4451913;32;34835;-85
2022/06/03 12:05:56;;;;;;;;;;;;;;;33.33;23.14;99526.47;4463027;32;35215;-85
2022/06/03 12:08:26;;;;;;;;;;;;;;;32.95;22.85;99516.78;4468120;32;35744;-82
2022/06/03 12:10:57;;;;;;;;;;;;;;;32.62;23.36;99504.00;4468399;32;34345;-84
2022/06/03 12:13:30;;;;;;;;;;;;;;;33.28;25.11;99513.41;4468168;32;33963;-83
2022/06/03 12:15:57;;;;;;;;;;;;;;;34.17;22.92;99500.28;4468100;32;34293;-81
2022/06/03 12:18:35;;;;;;;;;;;;;;;34.24;21.96;99493.44;4484278;31;34002;-82
2022/06/03 12:21:02;;;;;;;;;;;;;;;33.73;22.74;99497.44;4482369;32;33725;-82
2022/06/03 12:23:32;;;;;;;;;;;;;;;33.88;22.68;99488.16;4481621;32;34028;-82
2022/06/03 12:25:59;;;;;;;;;;;;;;;34.35;22.83;99483.53;4483024;32;35027;-82
2022/06/03 12:28:41;;;;;;;;;;;;;;;34.64;21.44;99472.25;4482901;32;34448;-82
2022/06/03 12:31:12;;;;;;;;;;;;;;;34.75;21.23;99474.06;4475326;32;33656;-82
2022/06/03 12:33:45;;;;;;;;;;;;;;;34.57;21.77;99471.06;4453005;32;34900;-88
2022/06/03 12:36:32;;;;;;;;;;;;;;;34.93;21.33;99472.53;4485444;31;34315;-83
2022/06/03 12:39:08;;;;;;;;;;;;;;;34.67;20.37;99465.78;4478142;32;33675;-78
2022/06/03 12:41:45;;;;;;;;;;;;;;;33.79;20.89;99469.19;4466965;32;33051;-80
2022/06/03 12:44:22;;;;;;;;;;;;;;;34.37;21.87;99470.81;4452499;32;33167;-79
2022/06/03 12:46:49;;;;;;;;;;;;;;;34.85;19.84;99466.91;4473233;32;35050;-81
2022/06/03 12:49:18;;;;;;;;;;;;;;;34.67;19.98;99465.78;4471841;32;34650;-80
2022/06/03 12:52:05;;;;;;;;;;;;;;;34.01;21.80;99463.84;4482735;32;32350;-80
2022/06/03 12:54:34;;;;;;;;;;;;;;;34.92;20.52;99457.34;4468329;32;34362;-84
2022/06/03 12:57:08;;;;;;;;;;;;;;;35.03;19.72;99456.47;4468554;32;33988;-86
2022/06/03 12:59:44;;;;;;;;;;;;;;;34.60;20.75;99454.66;4454144;32;34157;-79
2022/06/03 13:02:16;;;;;;;;;;;;;;;34.55;21.26;99462.22;4458172;32;33794;-89
2022/06/03 13:04:47;;;;;;;;;;;;;;;34.47;20.58;99459.28;4469996;32;34268;-80
2022/06/03 13:07:30;;;;;;;;;;;;;;;34.46;21.77;99457.56;4469085;32;34413;-89
2022/06/03 13:10:07;;;;;;;;;;;;;;;35.00;20.75;99445.94;4456631;32;33740;-80
2022/06/03 13:12:37;;;;;;;;;;;;;;;35.45;20.01;99446.56;4482950;32;33138;-81
2022/06/03 13:15:16;;;;;;;;;;;;;;;35.60;20.02;99430.94;4483012;32;33957;-83
2022/06/03 13:17:59;;;;;;;;;;;;;;;34.82;19.54;99441.12;4484303;32;34487;-81
2022/06/03 13:20:46;;;;;;;;;;;;;;;35.78;19.05;99440.12;4471840;32;35169;-82
2022/06/03 13:23:20;;;;;;;;;;;;;;;34.79;20.10;99435.13;4468591;32;33073;-80
2022/06/03 13:25:48;;;;;;;;;;;;;;;34.97;19.45;99438.13;4474933;31;34735;-80
2022/06/03 13:28:21;;;;;;;;;;;;;;;34.43;20.35;99430.91;4468802;32;34174;-82
2022/06/03 13:31:06;;;;;;;;;;;;;;;34.10;20.83;99436.22;4454520;32;34456;-81
2022/06/03 13:33:53;;;;;;;;;;;;;;;34.89;20.64;99443.28;4454426;32;34022;-79
2022/06/03 13:36:30;;;;;;;;;;;;;;;35.06;20.19;99432.81;4469426;32;33750;-80
2022/06/03 13:38:58;;;;;;;;;;;;;;;34.34;20.57;99433.38;4469884;32;34395;-80
2022/06/03 13:44:17;;;;;;;;;;;;;;;34.89;20.80;99430.66;4484893;31;34263;-89
2022/06/03 13:46:48;;;;;;;;;;;;;;;35.29;20.72;99425.47;4485690;31;33967;-84
2022/06/03 13:49:33;;;;;;;;;;;;;;;34.49;19.95;99423.22;4499948;31;34517;-83
2022/06/03 13:52:08;;;;;;;;;;;;;;;33.95;21.06;99417.75;4499682;31;35095;-80
2022/06/03 13:54:47;;;;;;;;;;;;;;;35.03;21.07;99418.75;4480924;32;34412;-83
2022/06/03 13:57:16;;;;;;;;;;;;;;;34.02;21.33;99414.47;4483422;32;34853;-90
2022/06/03 13:59:44;;;;;;;;;;;;;;;32.51;22.57;99426.09;4469563;32;34584;-85
2022/06/03 14:02:23;;;;;;;;;;;;;;;34.13;21.65;99413.56;4470005;32;33805;-80
2022/06/03 14:04:58;;;;;;;;;;;;;;;34.51;21.37;99406.94;4483922;32;33697;-80